createdAt,value
2017-10-29T00:00:57.833Z,100280.55
2017-10-29T00:03:29.908Z,100286.23
2017-10-29T00:06:03.063Z,100279.85
2017-10-29T00:08:35.600Z,100258.70
2017-10-29T00:11:11.388Z,100264.26
2017-10-29T00:13:43.380Z,100270.17
2017-10-29T00:16:17.729Z,100246.75
2017-10-29T00:18:49.898Z,100251.80
2017-10-29T00:21:24.887Z,100250.31
2017-10-29T00:23:57.117Z,100258.54
2017-10-29T00:26:28.808Z,100256.33
2017-10-29T00:29:00.625Z,100264.02
2017-10-29T00:31:33.248Z,100247.02
2017-10-29T00:34:08.241Z,100251.92
2017-10-29T00:36:40.676Z,100237.91
2017-10-29T00:39:18.990Z,100235.70
2017-10-29T00:41:50.781Z,100221.23
2017-10-29T00:44:25.578Z,100235.04
2017-10-29T00:46:58.673Z,100233.13
2017-10-29T00:49:31.378Z,100231.88
2017-10-29T00:52:05.952Z,100220.95
2017-10-29T00:54:37.661Z,100210.00
2017-10-29T00:57:10.201Z,100207.98
2017-10-29T00:59:41.729Z,100208.72
2017-10-29T01:02:19.934Z,100202.97
2017-10-29T01:04:51.586Z,100185.03
2017-10-29T01:07:26.470Z,100158.36
2017-10-29T01:09:58.627Z,100139.79
2017-10-29T01:12:31.670Z,100129.75
2017-10-29T01:15:04.859Z,100128.52
2017-10-29T01:20:42.011Z,100111.33
2017-10-29T01:23:13.741Z,100119.48
2017-10-29T01:25:46.341Z,100099.98
2017-10-29T01:28:19.768Z,100107.73
2017-10-29T01:30:51.288Z,100099.56
2017-10-29T01:33:25.381Z,100104.61
2017-10-29T01:35:56.797Z,100108.34
2017-10-29T01:38:29.197Z,100099.98
2017-10-29T01:41:01.507Z,100088.28
2017-10-29T01:43:33.254Z,100091.30
2017-10-29T01:46:05.631Z,100084.62
2017-10-29T01:48:37.026Z,100071.03
2017-10-29T01:51:08.372Z,100065.19
2017-10-29T01:53:39.893Z,100052.45
2017-10-29T01:56:12.196Z,100055.09
2017-10-29T01:58:43.923Z,100056.37
2017-10-29T02:01:15.319Z,100054.87
2017-10-29T02:03:46.887Z,100060.06
2017-10-29T02:06:22.522Z,100047.14
2017-10-29T02:08:54.090Z,100047.00
2017-10-29T02:11:26.326Z,100036.78
2017-10-29T02:13:59.110Z,100026.25
2017-10-29T02:16:31.938Z,100027.40
2017-10-29T02:19:05.159Z,100016.48
2017-10-29T02:21:39.959Z,100005.69
2017-10-29T02:24:12.235Z,100003.69
2017-10-29T02:26:44.059Z,100003.07
2017-10-29T02:29:15.926Z,99996.59
2017-10-29T02:31:47.373Z,99999.77
2017-10-29T02:34:21.649Z,100006.63
2017-10-29T02:36:53.889Z,99992.81
2017-10-29T02:39:26.112Z,99978.83
2017-10-29T02:41:57.704Z,99979.29
2017-10-29T02:44:29.273Z,99973.88
2017-10-29T02:47:01.564Z,99976.67
2017-10-29T02:49:33.002Z,99961.45
2017-10-29T02:52:06.755Z,99968.94
2017-10-29T02:54:38.444Z,99959.25
2017-10-29T02:57:09.791Z,99957.51
2017-10-29T02:59:41.352Z,99943.95
2017-10-29T03:02:14.621Z,99934.65
2017-10-29T03:04:46.199Z,99941.97
2017-10-29T03:07:17.767Z,99935.81
2017-10-29T03:09:49.805Z,99936.16
2017-10-29T03:12:22.759Z,99919.66
2017-10-29T03:14:58.031Z,99934.22
2017-10-29T03:17:35.309Z,99905.75
2017-10-29T03:22:49.431Z,99907.72
2017-10-29T03:25:24.233Z,99900.24
2017-10-29T03:27:56.055Z,99901.60
2017-10-29T03:30:29.355Z,99899.74
2017-10-29T03:33:02.813Z,99892.22
2017-10-29T03:35:35.120Z,99892.15
2017-10-29T03:38:07.117Z,99888.16
2017-10-29T03:40:38.815Z,99888.58
2017-10-29T03:43:11.132Z,99878.08
2017-10-29T03:45:42.592Z,99879.31
2017-10-29T03:48:14.114Z,99876.34
2017-10-29T03:50:45.707Z,99865.77
2017-10-29T03:53:17.262Z,99861.22
2017-10-29T03:55:48.899Z,99864.75
2017-10-29T03:58:23.114Z,99859.59
2017-10-29T04:00:55.088Z,99860.91
2017-10-29T04:03:27.512Z,99864.28
2017-10-29T04:05:59.016Z,99874.39
2017-10-29T04:08:30.476Z,99854.59
2017-10-29T04:11:02.087Z,99847.27
2017-10-29T04:13:34.211Z,99833.29
2017-10-29T04:16:07.236Z,99836.94
2017-10-29T04:18:39.586Z,99845.22
2017-10-29T04:21:11.107Z,99839.88
2017-10-29T04:23:48.286Z,99831.93
2017-10-29T04:26:26.744Z,99838.36
2017-10-29T04:28:59.547Z,99845.21
2017-10-29T04:31:32.572Z,99841.46
2017-10-29T04:34:06.580Z,99836.73
2017-10-29T04:36:38.376Z,99836.66
2017-10-29T04:39:09.870Z,99823.41
2017-10-29T04:41:41.732Z,99845.45
2017-10-29T04:44:14.973Z,99830.38
2017-10-29T04:46:46.505Z,99821.97
2017-10-29T04:49:19.172Z,99835.02
2017-10-29T04:51:50.457Z,99822.07
2017-10-29T04:54:23.498Z,99820.25
2017-10-29T04:56:55.395Z,99819.83
2017-10-29T04:59:27.103Z,99818.27
2017-10-29T05:01:58.449Z,99811.59
2017-10-29T05:04:30.680Z,99821.86
2017-10-29T05:07:02.813Z,99816.42
2017-10-29T05:09:35.449Z,99810.34
2017-10-29T05:12:06.841Z,99818.59
2017-10-29T05:14:38.515Z,99812.39
2017-10-29T05:17:10.012Z,99806.53
2017-10-29T05:19:41.402Z,99808.92
2017-10-29T05:22:12.855Z,99802.55
2017-10-29T05:24:44.213Z,99788.41
2017-10-29T05:27:15.559Z,99791.30
2017-10-29T05:29:47.802Z,99791.26
2017-10-29T05:32:19.351Z,99788.46
2017-10-29T05:34:51.050Z,99780.43
2017-10-29T05:37:23.477Z,99776.78
2017-10-29T05:39:54.884Z,99767.99
2017-10-29T05:42:26.550Z,99787.72
2017-10-29T05:44:58.249Z,99773.91
2017-10-29T05:47:36.166Z,99765.20
2017-10-29T05:50:07.698Z,99767.30
2017-10-29T05:52:39.027Z,99770.70
2017-10-29T05:55:13.500Z,99759.38
2017-10-29T05:57:45.012Z,99762.63
2017-10-29T06:00:17.149Z,99758.20
2017-10-29T06:02:48.564Z,99758.06
2017-10-29T06:05:19.985Z,99759.38
2017-10-29T06:07:51.368Z,99757.52
2017-10-29T06:10:23.001Z,99765.26
2017-10-29T06:12:54.426Z,99763.72
2017-10-29T06:15:27.263Z,99768.11
2017-10-29T06:17:58.942Z,99773.00
2017-10-29T06:20:30.479Z,99773.30
2017-10-29T06:23:02.001Z,99771.14
2017-10-29T06:25:33.323Z,99761.86
2017-10-29T06:28:05.476Z,99764.45
2017-10-29T06:30:37.128Z,99765.81
2017-10-29T06:33:08.757Z,99774.11
2017-10-29T06:35:40.636Z,99783.34
2017-10-29T06:38:12.008Z,99785.64
2017-10-29T06:40:43.438Z,99794.78
2017-10-29T06:43:15.628Z,99789.55
2017-10-29T06:45:47.225Z,99791.84
2017-10-29T06:48:20.111Z,99790.78
2017-10-29T06:50:51.911Z,99799.30
2017-10-29T06:53:25.472Z,99802.59
2017-10-29T06:55:56.848Z,99800.86
2017-10-29T06:58:28.659Z,99811.49
2017-10-29T07:01:00.435Z,99818.72
2017-10-29T07:03:31.730Z,99810.56
2017-10-29T07:06:03.836Z,99822.61
2017-10-29T07:08:35.791Z,99830.91
2017-10-29T07:11:07.227Z,99823.34
2017-10-29T07:13:39.667Z,99835.49
2017-10-29T07:16:11.642Z,99838.56
2017-10-29T07:18:43.975Z,99841.34
2017-10-29T07:21:17.579Z,99846.75
2017-10-29T07:23:51.527Z,99853.42
2017-10-29T07:26:25.621Z,99858.14
2017-10-29T07:28:58.755Z,99872.45
2017-10-29T07:31:32.255Z,99895.28
2017-10-29T07:34:14.619Z,99906.77
2017-10-29T07:36:49.177Z,99906.48
2017-10-29T07:39:25.949Z,99894.05
2017-10-29T07:42:04.502Z,99907.09
2017-10-29T07:44:40.222Z,99905.23
2017-10-29T07:47:14.665Z,99906.60
2017-10-29T07:49:48.862Z,99907.89
2017-10-29T07:52:27.080Z,99924.52
2017-10-29T07:55:00.830Z,99926.23
2017-10-29T07:57:35.206Z,99942.47
2017-10-29T08:00:09.490Z,99960.31
2017-10-29T08:02:41.355Z,99970.05
2017-10-29T08:05:15.905Z,99993.49
2017-10-29T08:08:00.029Z,99997.34
2017-10-29T08:10:36.523Z,99994.45
2017-10-29T08:13:13.447Z,100007.32
2017-10-29T08:15:48.558Z,100001.27
2017-10-29T08:18:20.794Z,100012.44
2017-10-29T08:20:52.208Z,100018.29
2017-10-29T08:23:24.296Z,100025.19
2017-10-29T08:25:56.981Z,100022.75
2017-10-29T08:28:28.837Z,100029.11
2017-10-29T08:31:04.552Z,100035.43
2017-10-29T08:33:37.257Z,100046.09
2017-10-29T08:36:10.971Z,100050.52
2017-10-29T08:38:42.979Z,100058.31
2017-10-29T08:41:15.151Z,100050.28
2017-10-29T08:43:48.548Z,100063.85
2017-10-29T08:46:21.216Z,100069.89
2017-10-29T08:48:53.830Z,100063.90
2017-10-29T08:51:26.757Z,100073.54
2017-10-29T08:53:59.592Z,100081.17
2017-10-29T08:56:33.263Z,100075.55
2017-10-29T08:59:05.875Z,100076.57
2017-10-29T09:01:37.637Z,100094.31
2017-10-29T09:04:10.009Z,100099.97
2017-10-29T09:06:42.036Z,100100.19
2017-10-29T09:09:13.865Z,100096.72
2017-10-29T09:11:45.482Z,100116.44
2017-10-29T09:14:17.971Z,100119.48
2017-10-29T09:16:50.921Z,100119.66
2017-10-29T09:19:22.357Z,100121.48
2017-10-29T09:21:53.881Z,100101.37
2017-10-29T09:24:27.193Z,100092.70
2017-10-29T09:26:59.884Z,100105.30
2017-10-29T09:29:31.596Z,100094.49
2017-10-29T09:32:05.344Z,100118.36
2017-10-29T09:34:40.160Z,100111.42
2017-10-29T09:37:12.866Z,100107.36
2017-10-29T09:39:44.719Z,100114.00
2017-10-29T09:42:17.541Z,100113.89
2017-10-29T09:44:50.889Z,100130.43
2017-10-29T09:47:24.582Z,100147.98
2017-10-29T09:49:58.020Z,100149.11
2017-10-29T09:52:29.479Z,100165.05
2017-10-29T09:55:05.337Z,100168.70
2017-10-29T09:57:39.209Z,100173.09
2017-10-29T10:00:11.983Z,100185.81
2017-10-29T10:02:45.746Z,100193.51
2017-10-29T10:05:17.120Z,100198.94
2017-10-29T10:07:49.752Z,100212.53
2017-10-29T10:10:22.321Z,100221.45
2017-10-29T10:12:54.297Z,100228.16
2017-10-29T10:15:27.526Z,100227.99
2017-10-29T10:18:00.929Z,100214.22
2017-10-29T10:20:33.140Z,100207.04
2017-10-29T10:23:07.029Z,100206.75
2017-10-29T10:25:41.430Z,100199.47
2017-10-29T10:28:13.858Z,100217.14
2017-10-29T10:30:46.165Z,100208.16
2017-10-29T10:33:17.802Z,100217.40
2017-10-29T10:35:49.190Z,100227.69
2017-10-29T10:38:21.498Z,100226.56
2017-10-29T10:40:53.859Z,100231.01
2017-10-29T10:43:27.558Z,100229.66
2017-10-29T10:46:00.451Z,100230.08
2017-10-29T10:48:32.848Z,100227.68
2017-10-29T10:51:05.885Z,100241.56
2017-10-29T10:53:41.704Z,100253.63
2017-10-29T10:56:16.520Z,100250.95
2017-10-29T10:58:54.554Z,100253.79
2017-10-29T11:01:29.635Z,100251.34
2017-10-29T11:04:05.051Z,100245.61
2017-10-29T11:06:39.403Z,100242.05
2017-10-29T11:09:12.149Z,100237.92
2017-10-29T11:11:44.824Z,100233.63
2017-10-29T11:14:17.275Z,100225.19
2017-10-29T11:16:49.618Z,100223.19
2017-10-29T11:19:21.531Z,100206.09
2017-10-29T11:21:55.293Z,100195.53
2017-10-29T11:24:33.801Z,100207.43
2017-10-29T11:27:14.810Z,100237.03
2017-10-29T11:29:48.331Z,100212.88
2017-10-29T11:32:24.019Z,100215.48
2017-10-29T11:35:01.615Z,100227.35
2017-10-29T11:37:36.516Z,100241.48
2017-10-29T11:40:12.975Z,100256.70
2017-10-29T11:42:44.770Z,100264.66
2017-10-29T11:45:16.612Z,100277.34
2017-10-29T11:47:50.524Z,100286.52
2017-10-29T11:50:23.189Z,100279.39
2017-10-29T11:52:56.333Z,100304.19
2017-10-29T11:55:28.790Z,100293.34
2017-10-29T11:58:02.251Z,100298.11
2017-10-29T12:00:35.531Z,100299.76
2017-10-29T12:03:11.261Z,100295.88
2017-10-29T12:05:45.657Z,100305.84
2017-10-29T12:08:20.815Z,100296.38
2017-10-29T12:10:53.183Z,100310.06
2017-10-29T12:13:26.843Z,100297.36
2017-10-29T12:15:59.124Z,100292.08
2017-10-29T12:18:36.819Z,100292.38
2017-10-29T12:21:12.641Z,100305.46
2017-10-29T12:23:45.718Z,100300.41
2017-10-29T12:26:19.847Z,100311.24
2017-10-29T12:28:52.803Z,100304.02
2017-10-29T12:31:28.684Z,100310.05
2017-10-29T12:34:01.176Z,100321.39
2017-10-29T12:36:33.885Z,100318.30
2017-10-29T12:39:07.296Z,100324.83
2017-10-29T12:41:42.996Z,100330.22
2017-10-29T12:44:14.993Z,100330.67
2017-10-29T12:46:47.335Z,100332.20
2017-10-29T12:49:21.170Z,100340.31
2017-10-29T12:51:55.493Z,100338.77
2017-10-29T12:54:32.313Z,100333.88
2017-10-29T12:57:09.332Z,100339.16
2017-10-29T12:59:43.821Z,100331.89
2017-10-29T13:02:16.741Z,100332.68
2017-10-29T13:04:49.541Z,100343.53
2017-10-29T13:07:20.937Z,100366.45
2017-10-29T13:09:54.251Z,100367.12
2017-10-29T13:12:26.166Z,100372.41
2017-10-29T13:15:00.152Z,100377.19
2017-10-29T13:17:35.072Z,100374.06
2017-10-29T13:20:09.613Z,100370.20
2017-10-29T13:22:44.701Z,100365.08
2017-10-29T13:25:18.360Z,100365.55
2017-10-29T13:27:51.303Z,100364.61
2017-10-29T13:30:31.448Z,100366.11
2017-10-29T13:33:04.573Z,100366.20
2017-10-29T13:35:36.074Z,100375.42
2017-10-29T13:38:12.016Z,100388.34
2017-10-29T13:40:45.306Z,100390.02
2017-10-29T13:43:16.903Z,100379.73
2017-10-29T13:45:52.112Z,100391.44
2017-10-29T13:48:31.349Z,100383.66
2017-10-29T13:51:07.681Z,100402.33
2017-10-29T13:53:40.373Z,100416.08
2017-10-29T13:56:12.558Z,100415.20
2017-10-29T13:58:44.362Z,100431.80
2017-10-29T14:01:17.252Z,100436.25
2017-10-29T14:03:50.074Z,100436.87
2017-10-29T14:06:24.134Z,100445.28
2017-10-29T14:08:56.523Z,100458.17
2017-10-29T14:11:28.508Z,100464.16
2017-10-29T14:14:07.309Z,100480.16
2017-10-29T14:16:40.472Z,100493.71
2017-10-29T14:19:15.807Z,100492.05
2017-10-29T14:21:48.319Z,100503.12
2017-10-29T14:24:20.001Z,100517.63
2017-10-29T14:26:54.472Z,100519.29
2017-10-29T14:29:25.869Z,100532.28
2017-10-29T14:31:57.403Z,100541.36
2017-10-29T14:34:29.214Z,100542.11
2017-10-29T14:37:01.173Z,100539.80
2017-10-29T14:39:33.767Z,100547.45
2017-10-29T14:42:11.055Z,100545.16
2017-10-29T14:44:45.293Z,100555.72
2017-10-29T14:47:18.128Z,100555.94
2017-10-29T14:49:50.695Z,100566.31
2017-10-29T14:52:22.383Z,100564.19
2017-10-29T14:54:53.961Z,100564.27
2017-10-29T14:57:27.169Z,100556.05
2017-10-29T14:59:58.757Z,100566.41
2017-10-29T15:02:30.203Z,100564.86
2017-10-29T15:05:04.844Z,100569.61
2017-10-29T15:07:39.971Z,100564.62
2017-10-29T15:10:15.150Z,100556.00
2017-10-29T15:12:48.682Z,100570.39
2017-10-29T15:15:20.903Z,100580.67
2017-10-29T15:17:55.679Z,100584.95
2017-10-29T15:20:27.325Z,100585.06
2017-10-29T15:22:58.765Z,100584.89
2017-10-29T15:25:31.669Z,100589.41
2017-10-29T15:28:07.058Z,100594.69
2017-10-29T15:30:40.479Z,100585.95
2017-10-29T15:33:12.275Z,100597.46
2017-10-29T15:35:45.086Z,100603.41
2017-10-29T15:38:19.139Z,100602.39
2017-10-29T15:40:50.877Z,100597.75
2017-10-29T15:43:23.606Z,100608.72
2017-10-29T15:45:55.000Z,100606.33
2017-10-29T15:48:26.695Z,100615.96
2017-10-29T15:50:58.486Z,100616.30
2017-10-29T15:53:30.216Z,100612.45
2017-10-29T15:56:03.147Z,100621.67
2017-10-29T15:58:34.875Z,100619.60
2017-10-29T16:01:06.236Z,100615.17
2017-10-29T16:03:38.256Z,100614.52
2017-10-29T16:06:09.959Z,100625.42
2017-10-29T16:08:41.665Z,100623.40
2017-10-29T16:11:13.076Z,100627.15
2017-10-29T16:13:47.181Z,100629.27
2017-10-29T16:16:21.409Z,100637.20
2017-10-29T16:18:53.220Z,100643.61
2017-10-29T16:21:24.611Z,100653.83
2017-10-29T16:23:57.585Z,100658.41
2017-10-29T16:26:29.402Z,100669.96
2017-10-29T16:29:01.152Z,100671.73
2017-10-29T16:31:32.716Z,100679.59
2017-10-29T16:34:06.546Z,100688.33
2017-10-29T16:36:37.975Z,100681.00
2017-10-29T16:39:09.433Z,100683.85
2017-10-29T16:41:41.454Z,100694.95
2017-10-29T16:44:16.045Z,100704.29
2017-10-29T16:46:50.784Z,100705.89
2017-10-29T16:49:26.476Z,100709.37
2017-10-29T16:52:00.884Z,100709.64
2017-10-29T16:54:32.574Z,100717.95
2017-10-29T16:57:05.354Z,100725.58
2017-10-29T16:59:36.813Z,100724.02
2017-10-29T17:02:08.551Z,100716.88
2017-10-29T17:04:41.305Z,100725.52
2017-10-29T17:07:13.305Z,100739.67
2017-10-29T17:09:48.280Z,100730.78
2017-10-29T17:12:20.307Z,100731.38
2017-10-29T17:14:53.767Z,100743.75
2017-10-29T17:17:26.152Z,100742.61
2017-10-29T17:19:58.073Z,100735.75
2017-10-29T17:22:30.503Z,100749.18
2017-10-29T17:25:02.856Z,100758.89
2017-10-29T17:27:34.313Z,100764.48
2017-10-29T17:30:09.344Z,100778.42
2017-10-29T17:32:43.079Z,100798.78
2017-10-29T17:35:17.064Z,100809.70
2017-10-29T17:37:51.422Z,100820.03
2017-10-29T17:40:24.264Z,100825.20
2017-10-29T17:42:56.660Z,100824.66
2017-10-29T17:45:31.485Z,100819.38
2017-10-29T17:48:10.160Z,100838.02
2017-10-29T17:50:42.103Z,100840.67
2017-10-29T17:53:15.381Z,100839.49
2017-10-29T17:55:48.084Z,100838.68
2017-10-29T17:58:21.388Z,100840.72
2017-10-29T18:00:56.170Z,100836.45
2017-10-29T18:03:29.626Z,100848.69
2017-10-29T18:06:01.752Z,100840.75
2017-10-29T18:08:35.240Z,100838.68
2017-10-29T18:11:07.039Z,100835.81
2017-10-29T18:13:41.284Z,100839.50
2017-10-29T18:16:38.081Z,100847.11
2017-10-29T18:19:11.961Z,100849.88
2017-10-29T18:25:09.634Z,100847.02
2017-10-29T18:30:59.002Z,100856.77
2017-10-29T18:34:00.487Z,100856.34
2017-10-29T18:36:39.603Z,100866.59
2017-10-29T18:39:25.219Z,100869.22
2017-10-29T18:42:21.991Z,100881.59
2017-10-29T18:44:58.236Z,100877.30
2017-10-29T18:48:03.234Z,100879.55
2017-10-29T18:50:47.125Z,100883.00
2017-10-29T18:53:20.756Z,100885.52
2017-10-29T18:55:52.296Z,100892.46
2017-10-29T18:58:27.046Z,100896.47
2017-10-29T19:01:05.777Z,100904.73
2017-10-29T19:03:51.684Z,100905.98
2017-10-29T19:09:33.605Z,100919.09
2017-10-29T19:12:23.153Z,100924.34
2017-10-29T19:14:57.768Z,100925.72
2017-10-29T19:17:48.595Z,100922.13
2017-10-29T19:20:31.884Z,100916.52
2017-10-29T19:23:12.309Z,100918.91
2017-10-29T19:26:24.343Z,100930.88
2017-10-29T19:29:16.588Z,100930.91
2017-10-29T19:35:14.221Z,100945.84
2017-10-29T19:37:45.828Z,100947.64
2017-10-29T19:40:19.545Z,100951.34
2017-10-29T19:42:51.205Z,100957.88
2017-10-29T19:45:22.934Z,100952.43
2017-10-29T19:47:55.236Z,100969.23
2017-10-29T19:50:26.781Z,100966.33
2017-10-29T19:52:58.710Z,100971.42
2017-10-29T19:55:30.552Z,100977.40
2017-10-29T19:58:03.779Z,100971.72
2017-10-29T20:00:35.954Z,100982.57
2017-10-29T20:03:10.365Z,100981.34
2017-10-29T20:05:43.357Z,100981.78
2017-10-29T20:08:16.185Z,100987.58
2017-10-29T20:10:47.576Z,100985.07
2017-10-29T20:13:19.445Z,100989.36
2017-10-29T20:15:50.877Z,100989.53
2017-10-29T20:18:22.206Z,100997.80
2017-10-29T20:20:54.005Z,101003.13
2017-10-29T20:23:26.021Z,100999.70
2017-10-29T20:25:57.560Z,101003.74
2017-10-29T20:28:29.395Z,101009.31
2017-10-29T20:31:00.917Z,101004.42
2017-10-29T20:33:33.648Z,101019.48
2017-10-29T20:36:07.299Z,101018.38
2017-10-29T20:38:38.713Z,101012.77
2017-10-29T20:41:10.440Z,101012.77
2017-10-29T20:43:41.864Z,101010.37
2017-10-29T20:46:13.999Z,101012.44
2017-10-29T20:48:45.421Z,101011.08
2017-10-29T20:51:18.304Z,101004.44
2017-10-29T20:53:51.750Z,101004.01
2017-10-29T20:56:24.567Z,101007.55
2017-10-29T20:58:56.312Z,101013.45
2017-10-29T21:01:28.540Z,101014.39
2017-10-29T21:04:07.629Z,101007.95
2017-10-29T21:06:39.338Z,101012.66
2017-10-29T21:09:12.033Z,101013.23
2017-10-29T21:11:43.373Z,101020.34
2017-10-29T21:14:16.410Z,101012.98
2017-10-29T21:16:51.303Z,101011.30
2017-10-29T21:19:23.851Z,101010.09
2017-10-29T21:21:55.664Z,101013.73
2017-10-29T21:24:29.038Z,101013.36
2017-10-29T21:27:01.271Z,101017.77
2017-10-29T21:29:32.749Z,101018.05
2017-10-29T21:32:07.333Z,101021.58
2017-10-29T21:34:38.894Z,101015.45
2017-10-29T21:37:10.685Z,101020.23
2017-10-29T21:39:43.386Z,101022.42
2017-10-29T21:42:15.123Z,101025.12
2017-10-29T21:44:46.952Z,101021.48
2017-10-29T21:47:22.759Z,101014.64
2017-10-29T21:49:54.116Z,101015.81
2017-10-29T21:52:25.599Z,101021.56
2017-10-29T21:54:57.364Z,101025.98
2017-10-29T21:57:29.012Z,101020.74
2017-10-29T22:00:00.487Z,101028.23
2017-10-29T22:02:32.233Z,101028.38
2017-10-29T22:05:04.321Z,101031.09
2017-10-29T22:07:35.863Z,101029.77
2017-10-29T22:10:07.500Z,101031.83
2017-10-29T22:12:38.936Z,101034.66
2017-10-29T22:15:10.457Z,101027.39
2017-10-29T22:17:42.732Z,101032.41
2017-10-29T22:20:14.051Z,101043.55
2017-10-29T22:22:47.258Z,101041.88
2017-10-29T22:25:19.398Z,101047.78
2017-10-29T22:27:53.037Z,101040.45
2017-10-29T22:30:24.491Z,101038.75
2017-10-29T22:32:55.985Z,101040.60
2017-10-29T22:35:27.441Z,101041.16
2017-10-29T22:37:59.500Z,101041.23
2017-10-29T22:40:32.001Z,101042.93
2017-10-29T22:45:27.300Z,101039.66
2017-10-29T22:47:58.632Z,101051.13
2017-10-29T22:50:30.325Z,101052.09
2017-10-29T22:53:01.886Z,101052.66
2017-10-29T22:55:33.237Z,101050.21
2017-10-29T22:58:05.727Z,101049.47
2017-10-29T23:00:37.046Z,101053.11
2017-10-29T23:03:08.371Z,101066.60
2017-10-29T23:05:48.642Z,101063.70
2017-10-29T23:08:29.133Z,101060.73
2017-10-29T23:11:00.473Z,101072.48
2017-10-29T23:13:32.048Z,101066.91
2017-10-29T23:16:04.147Z,101075.27
2017-10-29T23:18:35.512Z,101082.31
2017-10-29T23:21:07.249Z,101080.91
2017-10-29T23:23:38.543Z,101076.11
2017-10-29T23:26:09.839Z,101079.41
2017-10-29T23:28:41.480Z,101084.95
2017-10-29T23:31:12.816Z,101089.88
2017-10-29T23:33:44.181Z,101093.80
2017-10-29T23:36:15.802Z,101085.50
2017-10-29T23:38:47.119Z,101084.52
2017-10-29T23:41:19.076Z,101081.59
2017-10-29T23:43:50.371Z,101089.42
2017-10-29T23:46:23.669Z,101094.39
2017-10-29T23:48:55.296Z,101091.91
2017-10-29T23:51:27.625Z,101097.27
2017-10-29T23:53:58.943Z,101098.73
2017-10-29T23:56:30.609Z,101098.92
2017-10-29T23:59:02.685Z,101097.23
